Time;durP1;ratioP1;P1;durP2;ratioP2;P2;SDS_P1;SDS_P2;PMS_P1;PMS_P2;Temp;Humidity;BMP_temperature;BMP_pressure;BME280_temperature;BME280_humidity;BME280_pressure;Samples;Min_cycle;Max_cycle;Signal;HPM_P1;HPM_P2
2021/01/16 00:00:37;;;;;;;24.20;14.93;;;0.00;99.90;;;;;;5075954;28;20175;-84
2021/01/16 00:03:09;;;;;;;23.20;13.83;;;-0.20;99.90;;;;;;5094908;28;20200;-84
2021/01/16 00:05:34;;;;;;;21.40;14.53;;;-0.10;99.90;;;;;;5076555;28;20182;-84
2021/01/16 00:08:00;;;;;;;20.63;16.03;;;-0.10;99.90;;;;;;5076964;28;20764;-83
2021/01/16 00:10:26;;;;;;;22.13;15.33;;;-0.30;99.90;;;;;;5076592;28;20201;-84
2021/01/16 00:12:51;;;;;;;14.00;10.97;;;-0.30;99.90;;;;;;5076057;28;20289;-84
2021/01/16 00:15:17;;;;;;;30.50;19.10;;;0.00;99.90;;;;;;5076197;28;20420;-83
2021/01/16 00:17:43;;;;;;;23.10;15.47;;;-0.50;99.90;;;;;;5076442;28;20175;-83
2021/01/16 00:20:11;;;;;;;21.00;12.77;;;0.00;99.90;;;;;;5075773;28;20687;-83
2021/01/16 00:22:49;;;;;;;25.97;14.97;;;0.00;99.90;;;;;;5075887;28;20470;-81
2021/01/16 00:25:15;;;;;;;23.40;15.27;;;-0.10;99.90;;;;;;5076526;28;20882;-85
2021/01/16 00:27:41;;;;;;;22.43;15.30;;;-0.10;99.90;;;;;;5094015;28;20401;-83
2021/01/16 00:30:08;;;;;;;26.63;16.90;;;-0.50;99.90;;;;;;5076410;28;20182;-83
2021/01/16 00:32:36;;;;;;;26.50;15.40;;;0.00;99.90;;;;;;5075899;28;20421;-84
2021/01/16 00:35:09;;;;;;;26.87;17.30;;;-0.40;99.90;;;;;;5075672;28;20460;-84
2021/01/16 00:37:36;;;;;;;22.97;14.60;;;-0.10;99.90;;;;;;5076570;28;20429;-84
2021/01/16 00:40:06;;;;;;;25.77;16.40;;;0.00;99.90;;;;;;5075837;28;20935;-83
2021/01/16 00:42:31;;;;;;;22.00;14.63;;;0.00;99.90;;;;;;5075915;28;20413;-84
2021/01/16 00:44:57;;;;;;;25.10;16.03;;;-0.50;99.90;;;;;;5076555;28;20828;-83
2021/01/16 00:47:22;;;;;;;26.60;14.87;;;-0.40;99.90;;;;;;5093704;28;20166;-84
2021/01/16 00:49:48;;;;;;;21.50;15.97;;;-0.30;99.90;;;;;;5075839;28;20175;-83
2021/01/16 00:52:13;;;;;;;23.17;15.60;;;-0.40;99.90;;;;;;5076484;28;20170;-83
2021/01/16 00:54:39;;;;;;;25.53;15.77;;;-0.10;99.90;;;;;;5075354;28;20201;-83
2021/01/16 00:57:05;;;;;;;23.17;14.70;;;-0.40;99.90;;;;;;5076015;28;20545;-84
2021/01/16 00:59:30;;;;;;;23.43;15.97;;;0.00;99.90;;;;;;5077777;28;20171;-87
2021/01/16 01:01:56;;;;;;;27.93;16.50;;;-0.20;99.90;;;;;;5079382;28;20224;-83
2021/01/16 01:04:21;;;;;;;25.37;18.33;;;-0.40;99.90;;;;;;5079607;28;20689;-83
2021/01/16 01:06:47;;;;;;;23.47;16.13;;;-0.40;99.90;;;;;;5080183;28;20217;-85
2021/01/16 01:09:13;;;;;;;24.80;16.03;;;0.00;99.90;;;;;;5080165;28;20178;-84
2021/01/16 01:11:38;;;;;;;26.10;16.40;;;-0.40;99.90;;;;;;5079679;28;20210;-84
2021/01/16 01:14:06;;;;;;;26.90;16.90;;;0.00;99.90;;;;;;5079310;28;20181;-83
2021/01/16 01:16:35;;;;;;;29.67;17.87;;;-0.10;99.90;;;;;;5079023;28;20253;-83
2021/01/16 01:19:01;;;;;;;24.90;17.03;;;0.10;99.90;;;;;;5079489;28;20435;-83
2021/01/16 01:21:26;;;;;;;25.60;17.27;;;-0.10;99.90;;;;;;5075417;28;20469;-84
2021/01/16 01:23:52;;;;;;;29.37;17.83;;;-0.40;99.90;;;;;;5075259;28;20203;-84
2021/01/16 01:26:17;;;;;;;23.90;16.67;;;-0.10;99.90;;;;;;5076256;28;20185;-83
2021/01/16 01:28:43;;;;;;;29.10;18.33;;;-0.50;99.90;;;;;;5075289;28;20578;-84
2021/01/16 01:31:08;;;;;;;24.83;17.20;;;-0.40;99.90;;;;;;5075327;28;20273;-84
2021/01/16 01:33:34;;;;;;;27.10;17.93;;;-0.10;99.90;;;;;;5075490;28;20217;-83
2021/01/16 01:35:59;;;;;;;27.70;18.20;;;-0.50;99.90;;;;;;5075263;28;20182;-84
2021/01/16 01:38:25;;;;;;;28.27;18.20;;;-0.10;99.90;;;;;;5075436;28;20206;-84
2021/01/16 01:40:51;;;;;;;27.90;19.27;;;-0.10;99.90;;;;;;5075516;28;20175;-84
2021/01/16 01:43:16;;;;;;;25.07;16.50;;;-0.60;99.90;;;;;;5074973;28;20190;-83
2021/01/16 01:45:42;;;;;;;26.03;18.00;;;-0.40;99.90;;;;;;5076361;28;20176;-84
2021/01/16 01:48:09;;;;;;;29.40;19.27;;;-0.60;99.90;;;;;;5075937;28;20175;-84
2021/01/16 01:50:35;;;;;;;26.50;17.43;;;0.00;99.90;;;;;;5076864;28;20190;-85
2021/01/16 01:53:01;;;;;;;23.73;16.03;;;-0.50;99.90;;;;;;5076012;28;20422;-81
2021/01/16 01:55:28;;;;;;;31.27;19.77;;;-0.50;99.90;;;;;;5074775;28;20183;-84
2021/01/16 01:57:54;;;;;;;30.80;17.30;;;-0.10;99.90;;;;;;5074855;28;20595;-81
2021/01/16 02:00:21;;;;;;;32.53;18.10;;;-0.50;99.90;;;;;;5075784;28;20429;-83
2021/01/16 02:02:48;;;;;;;25.63;17.50;;;-0.10;99.90;;;;;;5074703;28;20770;-84
2021/01/16 02:05:14;;;;;;;22.20;14.83;;;-0.10;99.90;;;;;;5074424;28;20477;-84
2021/01/16 02:07:40;;;;;;;30.50;18.63;;;-0.40;99.90;;;;;;5074791;28;20422;-84
2021/01/16 02:10:09;;;;;;;23.20;15.57;;;-0.40;99.90;;;;;;5073825;28;20444;-83
2021/01/16 02:12:35;;;;;;;27.07;15.77;;;-0.10;99.90;;;;;;5074619;28;20182;-83
2021/01/16 02:15:06;;;;;;;24.03;17.87;;;-0.30;99.90;;;;;;5074891;28;20417;-83
2021/01/16 02:17:35;;;;;;;24.20;16.90;;;0.10;99.90;;;;;;5074610;28;20467;-85
2021/01/16 02:20:05;;;;;;;28.00;17.67;;;-0.10;99.90;;;;;;5075786;28;20955;-84
2021/01/16 02:22:34;;;;;;;26.10;17.17;;;-0.30;99.90;;;;;;5078249;28;20465;-84
2021/01/16 02:25:14;;;;;;;33.13;21.10;;;-0.40;99.90;;;;;;5077573;28;20493;-85
2021/01/16 02:27:45;;;;;;;25.20;17.63;;;-0.10;99.90;;;;;;5074881;28;20420;-84
2021/01/16 02:30:12;;;;;;;28.93;18.80;;;-0.50;99.90;;;;;;5075421;28;20892;-84
2021/01/16 02:32:39;;;;;;;26.37;16.60;;;-0.40;99.90;;;;;;5074021;28;21055;-84
2021/01/16 02:35:07;;;;;;;27.43;18.60;;;-0.10;99.90;;;;;;5074532;28;20405;-83
2021/01/16 02:37:59;;;;;;;27.07;17.10;;;0.00;99.90;;;;;;5073489;28;20939;-84
2021/01/16 02:40:38;;;;;;;24.20;17.20;;;0.00;99.90;;;;;;5074057;28;20422;-84
2021/01/16 02:43:11;;;;;;;24.20;16.43;;;-0.50;99.90;;;;;;5073922;28;20471;-84
2021/01/16 02:45:42;;;;;;;27.57;17.13;;;-0.50;99.90;;;;;;5073425;28;20433;-84
2021/01/16 02:48:21;;;;;;;29.50;18.00;;;-0.10;99.90;;;;;;5073900;28;20924;-83
2021/01/16 02:50:54;;;;;;;24.17;16.63;;;-0.20;99.90;;;;;;5073566;28;20421;-84
2021/01/16 02:53:22;;;;;;;29.63;17.30;;;-0.60;99.90;;;;;;5073347;28;20410;-84
2021/01/16 02:55:49;;;;;;;26.80;16.77;;;-0.30;99.90;;;;;;5074070;28;20425;-83
2021/01/16 02:58:16;;;;;;;26.80;17.30;;;-0.10;99.90;;;;;;5073071;28;20412;-84
2021/01/16 03:00:42;;;;;;;27.00;19.53;;;-0.40;99.90;;;;;;5073462;28;20429;-84
2021/01/16 03:03:08;;;;;;;28.10;18.37;;;-0.30;99.90;;;;;;5075157;28;20417;-84
2021/01/16 03:05:33;;;;;;;22.73;17.10;;;-0.50;99.90;;;;;;5073217;28;20469;-84
2021/01/16 03:08:00;;;;;;;25.77;18.10;;;-0.10;99.90;;;;;;5073059;28;20535;-84
2021/01/16 03:10:26;;;;;;;30.07;19.43;;;-0.40;99.90;;;;;;5073612;28;20176;-83
2021/01/16 03:12:52;;;;;;;26.13;18.13;;;-0.40;99.90;;;;;;5074522;28;20475;-83
2021/01/16 03:15:19;;;;;;;26.73;18.50;;;-0.40;99.90;;;;;;5073308;28;20422;-84
2021/01/16 03:17:46;;;;;;;28.50;19.00;;;-0.40;99.90;;;;;;5073496;28;20432;-83
2021/01/16 03:20:29;;;;;;;28.53;17.43;;;-0.20;99.90;;;;;;5072772;28;20445;-84
2021/01/16 03:22:59;;;;;;;24.13;16.70;;;0.10;99.90;;;;;;5072542;28;20532;-83
2021/01/16 03:25:27;;;;;;;40.03;19.93;;;0.30;99.90;;;;;;5072973;28;20576;-83
2021/01/16 03:27:54;;;;;;;27.90;18.13;;;-0.20;99.90;;;;;;5072602;28;20409;-83
2021/01/16 03:30:20;;;;;;;30.33;17.70;;;0.10;99.90;;;;;;5073550;28;20428;-83
2021/01/16 03:32:48;;;;;;;28.40;16.93;;;0.00;99.90;;;;;;5073997;28;20494;-83
2021/01/16 03:35:22;;;;;;;24.87;17.87;;;0.30;99.90;;;;;;5072784;28;20508;-83
2021/01/16 03:37:48;;;;;;;26.27;17.70;;;0.10;99.90;;;;;;5073677;28;20414;-84
2021/01/16 03:40:15;;;;;;;30.90;17.90;;;-0.10;99.90;;;;;;5072694;28;20422;-84
2021/01/16 03:42:44;;;;;;;26.30;16.50;;;-0.10;99.90;;;;;;5072807;28;20416;-84
2021/01/16 03:45:12;;;;;;;28.37;18.30;;;-0.30;99.90;;;;;;5072924;28;20567;-84
2021/01/16 03:47:38;;;;;;;23.47;16.60;;;-0.10;99.90;;;;;;5072701;28;20470;-84
2021/01/16 03:50:05;;;;;;;27.60;17.70;;;-0.10;99.90;;;;;;5074326;28;20406;-83
2021/01/16 03:52:33;;;;;;;23.43;15.50;;;-0.10;99.90;;;;;;5072663;28;20181;-83
2021/01/16 03:54:59;;;;;;;29.87;18.00;;;-0.60;99.90;;;;;;5072436;28;20825;-84
2021/01/16 03:57:25;;;;;;;25.80;17.27;;;-0.60;99.90;;;;;;5073066;28;20463;-83
2021/01/16 03:59:58;;;;;;;26.70;17.77;;;-0.50;99.90;;;;;;5072721;28;20424;-84
2021/01/16 04:02:23;;;;;;;25.23;17.07;;;-0.60;99.90;;;;;;5072734;28;20492;-83
2021/01/16 04:04:50;;;;;;;31.90;20.40;;;-0.50;99.90;;;;;;5072790;28;20884;-83
2021/01/16 04:07:15;;;;;;;26.90;18.83;;;-0.50;99.90;;;;;;5072484;28;20175;-83
2021/01/16 04:09:42;;;;;;;28.23;17.90;;;-0.30;99.90;;;;;;5073970;28;20418;-84
2021/01/16 04:12:08;;;;;;;28.33;19.57;;;-0.40;99.90;;;;;;5074337;28;20171;-83
2021/01/16 04:14:33;;;;;;;25.20;17.13;;;0.00;99.90;;;;;;5072025;28;20429;-83
2021/01/16 04:16:59;;;;;;;24.23;17.80;;;-0.40;99.90;;;;;;5072450;28;20174;-83
2021/01/16 04:19:25;;;;;;;22.20;15.03;;;-0.60;99.90;;;;;;5072883;28;20183;-84
2021/01/16 04:21:50;;;;;;;29.87;18.73;;;-0.20;99.90;;;;;;5071972;28;20219;-83
2021/01/16 04:24:16;;;;;;;25.77;18.03;;;-0.60;99.90;;;;;;5072646;28;20238;-84
2021/01/16 04:26:42;;;;;;;22.90;16.90;;;-0.10;99.90;;;;;;5072296;28;20207;-84
2021/01/16 04:29:07;;;;;;;25.43;16.23;;;-0.40;99.90;;;;;;5072202;28;20187;-83
2021/01/16 04:31:33;;;;;;;27.83;16.47;;;-0.50;99.90;;;;;;5072912;28;20175;-84
2021/01/16 04:33:59;;;;;;;28.97;18.53;;;-0.30;99.90;;;;;;5074553;28;20183;-83
2021/01/16 04:36:25;;;;;;;26.60;17.47;;;-0.40;99.90;;;;;;5076214;28;20523;-83
2021/01/16 04:38:50;;;;;;;21.90;16.57;;;-0.60;99.90;;;;;;5077906;28;20171;-84
2021/01/16 04:41:18;;;;;;;27.83;18.63;;;-0.40;99.90;;;;;;5076078;28;20207;-84
2021/01/16 04:43:46;;;;;;;28.23;17.80;;;-0.40;99.90;;;;;;5077325;28;20238;-84
2021/01/16 04:46:13;;;;;;;24.73;17.07;;;-0.20;99.90;;;;;;5076637;28;20429;-84
2021/01/16 04:48:41;;;;;;;21.73;16.17;;;-0.60;99.90;;;;;;5075992;28;20451;-84
2021/01/16 04:51:07;;;;;;;29.40;16.87;;;-0.60;99.90;;;;;;5076277;28;20520;-83
2021/01/16 04:53:40;;;;;;;29.50;19.27;;;-0.50;99.90;;;;;;5076508;28;20505;-83
2021/01/16 04:56:07;;;;;;;32.57;20.40;;;0.00;99.90;;;;;;5075644;28;20669;-84
2021/01/16 04:58:35;;;;;;;36.80;22.10;;;-0.10;99.90;;;;;;5075866;28;20451;-84
2021/01/16 05:01:06;;;;;;;27.20;18.60;;;-0.40;99.90;;;;;;5076106;28;20457;-83
2021/01/16 05:03:39;;;;;;;32.47;18.07;;;-0.40;99.90;;;;;;5075363;28;20429;-83
2021/01/16 05:06:09;;;;;;;27.73;17.67;;;-0.40;99.90;;;;;;5076036;28;20517;-83
2021/01/16 05:08:42;;;;;;;25.17;18.10;;;-0.10;99.90;;;;;;5075435;28;20912;-82
2021/01/16 05:11:16;;;;;;;25.60;16.30;;;-0.20;99.90;;;;;;5076696;28;20769;-83
2021/01/16 05:13:46;;;;;;;28.30;19.00;;;0.10;99.90;;;;;;5077041;28;20418;-83
2021/01/16 05:16:20;;;;;;;27.77;17.63;;;-0.20;99.90;;;;;;5076538;28;20429;-83
2021/01/16 05:18:46;;;;;;;23.57;16.37;;;-0.20;99.90;;;;;;5075114;28;20424;-83
2021/01/16 05:21:12;;;;;;;25.13;16.23;;;-0.60;99.90;;;;;;5075391;28;20474;-83
2021/01/16 05:23:44;;;;;;;23.13;16.40;;;-0.60;99.90;;;;;;5074882;28;20476;-82
2021/01/16 05:26:11;;;;;;;27.80;17.20;;;-0.60;99.90;;;;;;5075248;28;20175;-82
2021/01/16 05:28:38;;;;;;;27.33;17.80;;;-0.50;99.90;;;;;;5075534;28;20976;-83
2021/01/16 05:31:07;;;;;;;24.10;16.07;;;-0.70;99.90;;;;;;5074946;28;20929;-82
2021/01/16 05:33:38;;;;;;;25.60;16.23;;;-0.50;99.90;;;;;;5075372;28;20463;-82
2021/01/16 05:36:06;;;;;;;27.90;17.87;;;-0.60;99.90;;;;;;5075177;28;20500;-83
2021/01/16 05:38:35;;;;;;;26.40;17.40;;;-0.10;99.90;;;;;;5075007;28;20446;-83
2021/01/16 05:41:07;;;;;;;23.93;17.60;;;-0.40;99.90;;;;;;5075393;28;20421;-81
2021/01/16 05:43:34;;;;;;;24.13;17.90;;;-0.10;99.90;;;;;;5074762;28;20429;-83
2021/01/16 05:46:03;;;;;;;27.90;17.43;;;-0.30;99.90;;;;;;5073810;28;20758;-82
2021/01/16 05:48:30;;;;;;;26.90;19.37;;;-0.50;99.90;;;;;;5075482;28;20769;-82
2021/01/16 05:50:57;;;;;;;23.70;16.57;;;0.00;99.90;;;;;;5074507;28;20421;-83
2021/01/16 05:53:27;;;;;;;27.27;18.20;;;-0.50;99.90;;;;;;5073996;28;20413;-81
2021/01/16 05:55:54;;;;;;;24.20;15.60;;;-0.70;99.90;;;;;;5075265;28;20429;-82
2021/01/16 05:58:21;;;;;;;29.10;18.17;;;-0.20;99.90;;;;;;5074109;28;20413;-83
2021/01/16 06:00:49;;;;;;;26.70;17.30;;;-0.60;99.90;;;;;;5074548;28;20421;-82
2021/01/16 06:03:17;;;;;;;25.83;16.73;;;-0.30;99.90;;;;;;5075013;28;20414;-84
2021/01/16 06:05:48;;;;;;;28.47;17.80;;;-0.10;99.90;;;;;;5074022;28;20469;-83
2021/01/16 06:08:14;;;;;;;30.10;20.50;;;-0.20;99.90;;;;;;5076019;28;20481;-84
2021/01/16 06:10:42;;;;;;;27.17;16.80;;;-0.50;99.90;;;;;;5074338;28;20460;-83
2021/01/16 06:13:19;;;;;;;28.27;17.60;;;-0.70;99.90;;;;;;5073951;28;20417;-84
2021/01/16 06:15:47;;;;;;;30.40;17.17;;;-0.70;99.90;;;;;;5074599;28;20479;-83
2021/01/16 06:18:28;;;;;;;30.27;19.63;;;-0.50;99.90;;;;;;5074911;28;20440;-83
2021/01/16 06:20:55;;;;;;;27.77;19.30;;;-0.10;99.90;;;;;;5076066;28;20433;-81
2021/01/16 06:23:23;;;;;;;26.70;18.40;;;-0.20;99.90;;;;;;5077757;28;20421;-83
2021/01/16 06:25:51;;;;;;;25.17;16.07;;;-0.20;99.90;;;;;;5095077;28;20912;-83
2021/01/16 06:28:18;;;;;;;26.83;18.53;;;-0.50;99.90;;;;;;5077463;28;20428;-83
2021/01/16 06:30:53;;;;;;;27.53;19.10;;;-0.10;99.90;;;;;;5077364;28;20435;-83
2021/01/16 06:33:24;;;;;;;27.80;19.47;;;-0.40;99.90;;;;;;5077340;28;20625;-84
2021/01/16 06:36:05;;;;;;;27.93;17.73;;;-0.20;99.90;;;;;;5077468;28;20424;-84
2021/01/16 06:38:33;;;;;;;29.60;19.73;;;-0.20;99.90;;;;;;5076836;28;20519;-83
2021/01/16 06:41:11;;;;;;;25.07;18.60;;;-0.40;99.90;;;;;;5076564;28;20904;-82
2021/01/16 06:43:39;;;;;;;34.67;20.50;;;-0.60;99.90;;;;;;5077738;28;20464;-83
2021/01/16 06:46:15;;;;;;;27.20;19.10;;;-0.10;99.90;;;;;;5076738;28;20489;-83
2021/01/16 06:48:46;;;;;;;27.40;19.23;;;-0.50;99.90;;;;;;5077078;28;20452;-83
2021/01/16 06:51:26;;;;;;;26.83;20.03;;;-0.50;99.90;;;;;;5077179;28;20431;-83
2021/01/16 06:53:51;;;;;;;30.00;18.17;;;-0.10;99.90;;;;;;5076528;28;20459;-82
2021/01/16 06:56:26;;;;;;;27.90;19.10;;;-0.30;99.90;;;;;;5095010;28;20421;-83
2021/01/16 06:58:55;;;;;;;26.07;18.30;;;-0.50;99.90;;;;;;5076869;28;20178;-83
2021/01/16 07:01:29;;;;;;;28.07;16.63;;;-0.30;99.90;;;;;;5076603;28;20515;-82
2021/01/16 07:04:03;;;;;;;25.57;19.57;;;-0.60;99.90;;;;;;5077203;28;20517;-83
2021/01/16 07:06:47;;;;;;;25.83;18.63;;;-0.10;99.90;;;;;;5094848;28;20418;-83
2021/01/16 07:09:21;;;;;;;27.70;17.33;;;-0.30;99.90;;;;;;5076571;28;20472;-83
2021/01/16 07:11:51;;;;;;;26.20;18.20;;;0.00;99.90;;;;;;5056243;28;20422;-83
2021/01/16 07:14:18;;;;;;;26.83;17.23;;;-0.10;99.90;;;;;;5064311;28;20428;-83
2021/01/16 07:16:45;;;;;;;29.53;19.33;;;-0.30;99.90;;;;;;5075750;28;20448;-83
2021/01/16 07:19:18;;;;;;;27.00;18.77;;;0.00;99.90;;;;;;5074459;28;20448;-83
2021/01/16 07:21:44;;;;;;;30.13;18.17;;;-0.10;99.90;;;;;;5090147;28;20456;-84
2021/01/16 07:24:11;;;;;;;31.13;18.77;;;0.00;99.90;;;;;;5081814;28;20468;-84
2021/01/16 07:26:39;;;;;;;32.07;19.77;;;0.00;99.90;;;;;;5082188;28;20221;-84
2021/01/16 07:29:06;;;;;;;26.33;19.33;;;-0.30;99.90;;;;;;5075175;28;20431;-83
2021/01/16 07:31:36;;;;;;;33.40;23.43;;;-0.10;99.90;;;;;;5075569;28;20416;-84
2021/01/16 07:34:02;;;;;;;25.50;17.53;;;-0.50;99.90;;;;;;5076100;28;20417;-84
2021/01/16 07:36:29;;;;;;;27.47;19.07;;;-0.30;99.90;;;;;;5074925;28;20425;-83
2021/01/16 07:39:00;;;;;;;29.40;19.30;;;-0.40;99.90;;;;;;5075632;28;20416;-83
2021/01/16 07:41:30;;;;;;;24.77;17.90;;;-0.30;99.90;;;;;;5075061;28;20419;-83
2021/01/16 07:44:01;;;;;;;30.20;20.47;;;-0.10;99.90;;;;;;5093631;28;20464;-83
2021/01/16 07:46:29;;;;;;;26.37;16.33;;;-0.40;99.90;;;;;;5075246;28;20455;-84
2021/01/16 07:49:00;;;;;;;25.13;17.53;;;-0.30;99.90;;;;;;5075071;28;20416;-84
2021/01/16 07:51:30;;;;;;;30.27;19.20;;;-0.10;99.90;;;;;;5075610;28;20428;-84
2021/01/16 07:54:00;;;;;;;30.00;19.40;;;-0.40;99.90;;;;;;5075311;28;20416;-84
2021/01/16 07:56:41;;;;;;;33.17;22.47;;;-0.40;99.90;;;;;;5075541;28;20992;-84
2021/01/16 07:59:13;;;;;;;29.47;21.97;;;0.10;99.90;;;;;;5075629;28;20423;-84
2021/01/16 08:02:16;;;;;;;29.00;20.93;;;-0.30;99.90;;;;;;5074749;28;20448;-83
2021/01/16 08:04:56;;;;;;;28.03;20.30;;;-0.10;99.90;;;;;;5072412;28;20488;-83
2021/01/16 08:07:40;;;;;;;30.87;19.53;;;0.00;99.90;;;;;;5054998;28;20445;-84
2021/01/16 08:10:13;;;;;;;26.13;15.63;;;0.20;99.90;;;;;;5076660;28;20413;-82
2021/01/16 08:12:41;;;;;;;23.57;16.77;;;0.00;99.90;;;;;;5058661;28;20428;-83
2021/01/16 08:15:15;;;;;;;27.80;18.10;;;0.20;99.90;;;;;;5089715;28;20431;-83
2021/01/16 08:17:44;;;;;;;26.23;18.00;;;0.10;99.90;;;;;;5098889;28;20573;-83
2021/01/16 08:20:28;;;;;;;28.83;17.70;;;-0.40;99.90;;;;;;5098674;28;20414;-83
2021/01/16 08:22:58;;;;;;;29.97;19.63;;;0.00;99.90;;;;;;5098808;28;20525;-84
2021/01/16 08:25:28;;;;;;;30.50;19.80;;;-0.10;99.90;;;;;;5096003;28;20547;-84
2021/01/16 08:27:55;;;;;;;29.30;20.80;;;-0.20;99.90;;;;;;5088449;28;20417;-82
2021/01/16 08:30:24;;;;;;;28.20;18.80;;;-0.50;99.90;;;;;;5081252;28;20444;-84
2021/01/16 08:32:57;;;;;;;28.80;18.30;;;0.10;99.90;;;;;;5087140;28;20503;-84
2021/01/16 08:35:44;;;;;;;30.30;22.00;;;0.10;99.90;;;;;;5089180;28;20428;-83
2021/01/16 08:38:30;;;;;;;26.97;19.80;;;-0.10;99.90;;;;;;5094878;28;20515;-81
2021/01/16 08:41:02;;;;;;;26.87;18.90;;;-0.60;99.90;;;;;;5096312;28;20432;-84
2021/01/16 08:43:29;;;;;;;25.57;18.50;;;-0.10;99.90;;;;;;5077996;28;20432;-85
2021/01/16 08:46:11;;;;;;;27.00;18.60;;;-0.60;99.90;;;;;;5077956;28;20428;-83
2021/01/16 08:48:38;;;;;;;28.73;20.17;;;-0.20;99.90;;;;;;5077729;28;20420;-84
2021/01/16 08:51:30;;;;;;;29.60;20.50;;;-0.50;99.90;;;;;;5077687;28;20843;-84
2021/01/16 08:54:12;;;;;;;26.87;20.13;;;0.00;99.90;;;;;;5066999;28;20424;-84
2021/01/16 08:56:40;;;;;;;28.00;20.60;;;0.10;99.90;;;;;;5096050;28;20499;-84
2021/01/16 08:59:29;;;;;;;31.10;22.90;;;0.00;99.90;;;;;;5077792;28;20409;-83
2021/01/16 09:02:04;;;;;;;27.20;18.40;;;0.20;99.90;;;;;;5077417;28;20424;-84
2021/01/16 09:04:32;;;;;;;24.43;17.37;;;-0.10;99.90;;;;;;5057762;28;20456;-85
2021/01/16 09:07:20;;;;;;;25.67;17.07;;;-0.30;99.90;;;;;;5059975;28;20507;-82
2021/01/16 09:09:57;;;;;;;27.70;18.57;;;-0.30;99.90;;;;;;5077984;28;20431;-83
2021/01/16 09:12:34;;;;;;;25.53;18.90;;;0.10;99.90;;;;;;5092203;28;20470;-83
2021/01/16 09:15:26;;;;;;;30.10;21.17;;;0.00;99.90;;;;;;5094382;28;20424;-83
2021/01/16 09:18:12;;;;;;;27.33;17.93;;;0.20;99.90;;;;;;5093280;28;20471;-82
2021/01/16 09:21:07;;;;;;;25.43;18.33;;;-0.40;99.90;;;;;;5093216;28;20431;-85
2021/01/16 09:23:38;;;;;;;27.33;17.93;;;0.30;99.90;;;;;;5085143;28;20531;-83
2021/01/16 09:26:04;;;;;;;27.20;18.77;;;-0.40;99.90;;;;;;5095528;28;20428;-83
2021/01/16 09:28:55;;;;;;;29.13;18.10;;;-0.10;99.90;;;;;;5094232;28;20409;-84
2021/01/16 09:31:25;;;;;;;30.57;19.00;;;0.20;99.90;;;;;;5093933;28;20178;-84
2021/01/16 09:33:53;;;;;;;26.33;18.80;;;0.20;99.90;;;;;;5094702;28;20972;-83
2021/01/16 09:36:37;;;;;;;21.50;15.70;;;-0.20;99.90;;;;;;5094128;28;20428;-84
2021/01/16 09:39:06;;;;;;;26.87;19.17;;;0.20;99.90;;;;;;5096293;28;20768;-82
2021/01/16 09:41:33;;;;;;;28.50;17.50;;;-0.40;99.90;;;;;;5095450;28;20416;-86
2021/01/16 09:43:59;;;;;;;27.60;20.00;;;-0.50;99.90;;;;;;5093374;28;20893;-84
2021/01/16 09:46:35;;;;;;;33.97;21.33;;;-0.20;99.90;;;;;;5093922;28;20531;-83
2021/01/16 09:49:02;;;;;;;28.00;18.77;;;-0.40;99.90;;;;;;5095052;28;20636;-83
2021/01/16 09:51:30;;;;;;;22.90;18.30;;;-0.10;99.90;;;;;;5093916;28;20413;-83
2021/01/16 09:54:08;;;;;;;19.90;13.27;;;0.10;99.90;;;;;;5093594;28;20417;-83
2021/01/16 09:56:41;;;;;;;30.03;20.07;;;-0.40;99.90;;;;;;5094570;28;20454;-82
2021/01/16 09:59:07;;;;;;;29.80;22.60;;;-0.40;99.90;;;;;;5096866;28;20462;-84
2021/01/16 10:01:34;;;;;;;32.40;20.63;;;0.00;99.90;;;;;;5094163;28;20420;-84
2021/01/16 10:04:03;;;;;;;26.90;20.17;;;-0.40;99.90;;;;;;5093338;28;20209;-84
2021/01/16 10:06:36;;;;;;;30.70;21.30;;;-0.20;99.90;;;;;;5093056;28;20850;-83
2021/01/16 10:09:18;;;;;;;30.70;19.57;;;0.00;99.90;;;;;;5093953;28;20431;-83
2021/01/16 10:11:44;;;;;;;34.83;24.30;;;0.10;99.90;;;;;;5092986;28;20428;-84
2021/01/16 10:14:18;;;;;;;27.87;19.43;;;0.40;99.90;;;;;;5094521;28;20421;-84
2021/01/16 10:16:48;;;;;;;28.33;19.93;;;0.20;99.90;;;;;;5094914;28;20435;-83
2021/01/16 10:19:15;;;;;;;26.77;16.53;;;-0.20;99.90;;;;;;5094075;28;20428;-85
2021/01/16 10:21:54;;;;;;;31.50;20.40;;;0.40;99.90;;;;;;5093797;28;20500;-85
2021/01/16 10:24:21;;;;;;;31.17;19.80;;;0.30;99.90;;;;;;5094765;28;20814;-83
2021/01/16 10:26:47;;;;;;;30.90;20.63;;;0.30;99.90;;;;;;5094040;28;20421;-84
2021/01/16 10:29:17;;;;;;;33.93;21.23;;;-0.10;99.90;;;;;;5091876;28;20428;-84
2021/01/16 10:31:42;;;;;;;28.53;19.53;;;-0.10;99.90;;;;;;5092835;28;20784;-84
2021/01/16 10:34:12;;;;;;;26.33;19.37;;;0.00;99.90;;;;;;5093853;28;20523;-84
2021/01/16 10:36:39;;;;;;;32.03;21.97;;;0.50;99.90;;;;;;5096632;28;20166;-84
2021/01/16 10:39:10;;;;;;;28.63;19.83;;;0.30;99.90;;;;;;5095414;28;20452;-84
2021/01/16 10:41:37;;;;;;;27.20;18.47;;;0.70;99.90;;;;;;5094279;28;20417;-80
2021/01/16 10:44:05;;;;;;;27.20;18.27;;;0.60;99.90;;;;;;5094830;28;20455;-85
2021/01/16 10:46:49;;;;;;;31.40;19.83;;;0.70;99.90;;;;;;5093873;28;20474;-82
2021/01/16 10:49:26;;;;;;;25.63;18.23;;;0.30;99.90;;;;;;5093839;28;20404;-83
2021/01/16 10:52:03;;;;;;;25.30;18.57;;;0.30;99.90;;;;;;5093538;28;20440;-81
2021/01/16 10:54:30;;;;;;;23.60;15.90;;;0.60;99.90;;;;;;5093936;28;20767;-82
2021/01/16 10:56:59;;;;;;;25.07;17.77;;;0.90;99.90;;;;;;5093386;28;20459;-82
2021/01/16 10:59:29;;;;;;;24.73;15.83;;;0.80;99.90;;;;;;5093323;28;20499;-82
2021/01/16 11:01:55;;;;;;;25.53;18.00;;;0.70;99.90;;;;;;5092987;28;20774;-83
2021/01/16 11:04:25;;;;;;;24.20;19.03;;;0.40;99.90;;;;;;5095142;28;20973;-83
2021/01/16 11:06:54;;;;;;;26.10;17.07;;;0.50;99.90;;;;;;5094048;28;20433;-82
2021/01/16 11:09:35;;;;;;;22.23;16.97;;;0.70;99.90;;;;;;5093245;28;20527;-82
2021/01/16 11:12:05;;;;;;;25.27;16.43;;;0.10;99.90;;;;;;5094116;28;20416;-82
2021/01/16 11:14:39;;;;;;;21.53;16.17;;;0.50;99.90;;;;;;5093078;28;20412;-82
2021/01/16 11:17:07;;;;;;;22.47;16.70;;;0.80;99.90;;;;;;5092964;28;20918;-82
2021/01/16 11:19:35;;;;;;;22.93;19.17;;;0.30;99.90;;;;;;5093007;28;20458;-83
2021/01/16 11:22:07;;;;;;;26.10;19.37;;;0.70;99.90;;;;;;5092903;28;20467;-82
2021/01/16 11:24:52;;;;;;;24.60;15.43;;;0.60;99.90;;;;;;5093198;28;20494;-83
2021/01/16 11:27:22;;;;;;;23.93;15.90;;;0.80;99.90;;;;;;5093329;28;20507;-83
2021/01/16 11:29:48;;;;;;;28.30;20.10;;;0.90;99.90;;;;;;5093091;28;20412;-82
2021/01/16 11:32:16;;;;;;;25.90;17.70;;;0.70;99.90;;;;;;5092865;28;20428;-82
2021/01/16 11:35:03;;;;;;;38.60;22.40;;;0.30;99.90;;;;;;5093176;28;20835;-83
2021/01/16 11:37:57;;;;;;;34.00;21.63;;;0.30;99.90;;;;;;5092858;28;20420;-83
2021/01/16 11:40:33;;;;;;;25.13;19.10;;;0.90;99.90;;;;;;5092953;28;20927;-85
2021/01/16 11:43:04;;;;;;;23.87;18.00;;;0.70;99.90;;;;;;5092893;28;20451;-83
2021/01/16 11:45:30;;;;;;;24.33;17.43;;;0.70;99.90;;;;;;5095168;28;20468;-83
2021/01/16 11:48:01;;;;;;;29.10;19.13;;;0.10;99.90;;;;;;5093176;28;20462;-84
2021/01/16 11:50:34;;;;;;;27.37;19.70;;;0.50;99.90;;;;;;5093226;28;20420;-84
2021/01/16 11:53:11;;;;;;;23.43;16.83;;;0.50;99.90;;;;;;5093211;28;20455;-83
2021/01/16 11:55:36;;;;;;;25.10;18.93;;;0.40;99.90;;;;;;5092400;28;20425;-83
2021/01/16 11:58:03;;;;;;;26.47;20.10;;;0.70;99.90;;;;;;5093296;28;20500;-84
2021/01/16 12:00:29;;;;;;;26.03;17.80;;;0.60;99.90;;;;;;5092501;28;20265;-83
2021/01/16 12:02:57;;;;;;;27.53;19.67;;;0.90;99.90;;;;;;5092632;28;20473;-82
2021/01/16 12:05:24;;;;;;;24.17;18.30;;;0.80;99.90;;;;;;5093003;28;20468;-82
2021/01/16 12:07:52;;;;;;;23.83;17.03;;;0.70;99.90;;;;;;5092752;28;20417;-82
2021/01/16 12:10:19;;;;;;;26.83;19.63;;;0.60;99.90;;;;;;5092897;28;20416;-83
2021/01/16 12:12:45;;;;;;;25.67;19.30;;;1.10;99.90;;;;;;5092377;28;20419;-84
2021/01/16 12:15:21;;;;;;;26.07;18.80;;;1.00;99.90;;;;;;5092568;28;20424;-82
2021/01/16 12:17:48;;;;;;;28.33;20.07;;;1.00;99.90;;;;;;5092463;28;21015;-83
2021/01/16 12:20:15;;;;;;;28.47;19.57;;;0.90;99.90;;;;;;5092565;28;20533;-82
2021/01/16 12:22:42;;;;;;;26.77;18.07;;;0.90;99.90;;;;;;5092400;28;20464;-83
2021/01/16 12:25:10;;;;;;;25.77;19.13;;;0.40;99.90;;;;;;5092535;28;20490;-83
2021/01/16 12:27:47;;;;;;;28.80;19.83;;;0.80;99.90;;;;;;5092133;28;20413;-82
2021/01/16 12:30:13;;;;;;;26.80;18.37;;;0.90;99.90;;;;;;5092434;28;20434;-83
2021/01/16 12:32:41;;;;;;;24.40;16.00;;;1.20;99.90;;;;;;5093383;28;20415;-83
2021/01/16 12:35:07;;;;;;;25.87;17.33;;;1.60;99.90;;;;;;5092136;28;20420;-83
2021/01/16 12:37:35;;;;;;;27.43;19.83;;;1.60;99.90;;;;;;5092451;28;20962;-82
2021/01/16 12:40:04;;;;;;;18.40;14.40;;;1.60;99.90;;;;;;5091987;28;20424;-83
2021/01/16 12:42:31;;;;;;;22.57;16.37;;;1.50;99.90;;;;;;5093208;28;20446;-82
2021/01/16 12:45:24;;;;;;;26.10;16.13;;;1.60;99.90;;;;;;5092288;28;20558;-83